createdAt,value
2023-02-11T00:01:31.608Z,53.87
2023-02-11T00:04:00.137Z,44.33
2023-02-11T00:06:30.592Z,50.23
2023-02-11T00:08:58.196Z,39.97
2023-02-11T00:11:30.441Z,46.63
2023-02-11T00:14:00.625Z,44.87
2023-02-11T00:16:29.522Z,41.78
2023-02-11T00:18:57.249Z,46.00
2023-02-11T00:21:26.758Z,42.13
2023-02-11T00:23:57.110Z,36.97
2023-02-11T00:26:31.461Z,36.83
2023-02-11T00:28:59.521Z,43.67
2023-02-11T00:31:27.833Z,39.13
2023-02-11T00:33:55.738Z,45.87
2023-02-11T00:36:27.801Z,38.47
2023-02-11T00:38:57.164Z,44.47
2023-02-11T00:41:25.152Z,42.80
2023-02-11T00:43:53.183Z,39.83
2023-02-11T00:46:21.391Z,41.20
2023-02-11T00:48:49.339Z,43.57
2023-02-11T00:51:16.520Z,39.90
2023-02-11T00:53:43.914Z,37.00
2023-02-11T00:56:11.250Z,37.83
2023-02-11T00:58:38.658Z,38.37
2023-02-11T01:01:06.459Z,41.77
2023-02-11T01:03:36.130Z,45.97
2023-02-11T01:06:03.510Z,45.30
2023-02-11T01:08:30.986Z,36.87
2023-02-11T01:11:04.525Z,37.03
2023-02-11T01:13:35.735Z,39.53
2023-02-11T01:16:07.361Z,32.67
2023-02-11T01:18:35.018Z,36.73
2023-02-11T01:21:02.267Z,36.00
2023-02-11T01:23:29.471Z,39.13
2023-02-11T01:25:57.439Z,41.00
2023-02-11T01:28:28.760Z,41.50
2023-02-11T01:30:57.105Z,41.77
2023-02-11T01:33:24.934Z,51.77
2023-02-11T01:35:52.635Z,44.23
2023-02-11T01:38:24.928Z,41.57
2023-02-11T01:40:57.281Z,38.00
2023-02-11T01:43:26.635Z,44.87
2023-02-11T01:46:02.026Z,42.57
2023-02-11T01:48:38.259Z,36.40
2023-02-11T01:51:22.199Z,43.97
2023-02-11T01:54:09.628Z,39.60
2023-02-11T01:57:01.306Z,37.80
2023-02-11T01:59:41.083Z,34.90
2023-02-11T02:02:12.759Z,45.47
2023-02-11T02:04:55.385Z,38.30
2023-02-11T02:07:49.619Z,33.83
2023-02-11T02:10:23.113Z,42.30
2023-02-11T02:12:50.447Z,37.13
2023-02-11T02:15:29.922Z,37.93
2023-02-11T02:18:09.809Z,41.17
2023-02-11T02:21:13.869Z,41.30
2023-02-11T02:23:52.480Z,43.37
2023-02-11T02:27:04.477Z,37.83
2023-02-11T02:30:32.312Z,45.40
2023-02-11T02:33:21.635Z,44.70
2023-02-11T02:36:24.033Z,35.23
2023-02-11T02:39:29.503Z,37.57
2023-02-11T02:41:57.288Z,38.03
2023-02-11T02:44:24.770Z,45.20
2023-02-11T02:46:52.295Z,43.53
2023-02-11T02:49:19.517Z,43.33
2023-02-11T02:52:31.105Z,46.60
2023-02-11T02:55:04.728Z,36.13
2023-02-11T02:58:00.520Z,37.43
2023-02-11T03:00:41.924Z,39.40
2023-02-11T03:03:57.632Z,36.97
2023-02-11T03:06:46.745Z,33.87
2023-02-11T03:09:30.170Z,39.57
2023-02-11T03:11:57.580Z,35.97
2023-02-11T03:14:27.878Z,41.20
2023-02-11T03:16:59.373Z,37.05
2023-02-11T03:19:44.562Z,36.40
2023-02-11T03:22:26.512Z,39.27
2023-02-11T03:24:56.216Z,34.23
2023-02-11T03:28:13.947Z,37.13
2023-02-11T03:31:00.066Z,34.00
2023-02-11T03:33:48.198Z,36.77
2023-02-11T03:36:26.848Z,33.20
2023-02-11T03:38:59.920Z,35.33
2023-02-11T03:41:27.660Z,33.80
2023-02-11T03:43:58.336Z,34.23
2023-02-11T03:49:11.266Z,37.93
2023-02-11T03:51:39.252Z,38.73
2023-02-11T03:54:14.742Z,33.10
2023-02-11T03:56:56.951Z,29.80
2023-02-11T03:59:24.647Z,35.63
2023-02-11T04:01:52.608Z,31.30
2023-02-11T04:04:20.338Z,30.47
2023-02-11T04:06:47.669Z,25.83
2023-02-11T04:09:15.545Z,26.13
2023-02-11T04:11:42.795Z,25.47
2023-02-11T04:14:09.989Z,29.00
2023-02-11T04:16:37.454Z,28.30
2023-02-11T04:19:05.138Z,33.33
2023-02-11T04:21:32.421Z,32.10
2023-02-11T04:23:59.675Z,36.43
2023-02-11T04:26:26.932Z,42.30
2023-02-11T04:28:54.072Z,36.23
2023-02-11T04:31:21.396Z,35.60
2023-02-11T04:33:48.682Z,39.40
2023-02-11T04:36:15.891Z,28.57
2023-02-11T04:38:43.145Z,34.90
2023-02-11T04:41:10.283Z,34.70
2023-02-11T04:43:37.480Z,21.80
2023-02-11T04:46:04.862Z,18.67
2023-02-11T04:48:32.237Z,15.03
2023-02-11T04:50:59.516Z,16.53
2023-02-11T04:53:26.851Z,18.13
2023-02-11T04:55:54.214Z,17.30
2023-02-11T04:58:21.826Z,19.43
2023-02-11T05:00:49.095Z,17.17
2023-02-11T05:03:17.195Z,17.03
2023-02-11T05:05:44.628Z,18.17
2023-02-11T05:08:12.660Z,21.37
2023-02-11T05:10:39.974Z,14.60
2023-02-11T05:13:07.163Z,17.07
2023-02-11T05:15:34.597Z,18.67
2023-02-11T05:18:01.905Z,14.87
2023-02-11T05:20:29.406Z,18.60
2023-02-11T05:22:56.767Z,18.83
2023-02-11T05:25:24.034Z,17.37
2023-02-11T05:27:51.270Z,18.40
2023-02-11T05:30:18.605Z,16.33
2023-02-11T05:32:45.844Z,17.37
2023-02-11T05:35:12.976Z,18.90
2023-02-11T05:37:40.274Z,20.33
2023-02-11T05:40:08.200Z,17.10
2023-02-11T05:42:35.634Z,20.70
2023-02-11T05:45:02.956Z,15.50
2023-02-11T05:47:30.300Z,21.57
2023-02-11T05:49:57.481Z,19.90
2023-02-11T05:52:25.113Z,22.40
2023-02-11T05:54:52.335Z,21.50
2023-02-11T05:57:20.279Z,20.20
2023-02-11T05:59:47.575Z,20.97
2023-02-11T06:02:14.865Z,20.60
2023-02-11T06:04:42.269Z,26.63
2023-02-11T06:07:09.463Z,21.83
2023-02-11T06:09:37.877Z,24.00
2023-02-11T06:12:05.476Z,22.50
2023-02-11T06:14:34.389Z,21.97
2023-02-11T06:17:02.084Z,21.10
2023-02-11T06:19:29.418Z,20.13
2023-02-11T06:21:57.744Z,23.47
2023-02-11T06:24:48.130Z,28.03
2023-02-11T06:27:12.570Z,27.30
2023-02-11T06:29:39.815Z,25.07
2023-02-11T06:32:10.078Z,20.63
2023-02-11T06:34:43.404Z,22.60
2023-02-11T06:37:10.600Z,27.63
2023-02-11T06:39:38.345Z,24.60
2023-02-11T06:42:07.913Z,25.63
2023-02-11T06:44:35.263Z,23.20
2023-02-11T06:47:02.471Z,24.97
2023-02-11T06:49:29.845Z,21.13
2023-02-11T06:51:57.020Z,25.83
2023-02-11T06:54:24.544Z,22.97
2023-02-11T06:56:51.809Z,22.87
2023-02-11T06:59:20.958Z,28.87
2023-02-11T07:01:48.690Z,28.60
2023-02-11T07:04:16.126Z,27.13
2023-02-11T07:06:43.395Z,30.93
2023-02-11T07:09:10.753Z,22.00
2023-02-11T07:11:37.913Z,26.00
2023-02-11T07:14:08.680Z,24.20
2023-02-11T07:19:03.728Z,32.90
2023-02-11T07:21:31.223Z,28.20
2023-02-11T07:23:58.495Z,31.73
2023-02-11T07:26:29.229Z,29.93
2023-02-11T07:31:27.249Z,25.27
2023-02-11T07:33:58.032Z,27.67
2023-02-11T07:36:25.971Z,23.65
2023-02-11T07:38:53.323Z,21.83
2023-02-11T07:41:23.467Z,25.13
2023-02-11T07:43:52.888Z,23.33
2023-02-11T07:46:23.488Z,21.15
2023-02-11T07:48:51.058Z,22.38
2023-02-11T07:51:30.829Z,22.67
2023-02-11T07:54:00.441Z,23.10
2023-02-11T07:56:28.988Z,20.27
2023-02-11T07:58:59.893Z,23.13
2023-02-11T08:01:28.564Z,23.65
2023-02-11T08:03:58.611Z,21.60
2023-02-11T08:06:29.587Z,23.25
2023-02-11T08:08:57.184Z,31.65
2023-02-11T08:11:28.256Z,35.00
2023-02-11T08:13:56.919Z,31.58
2023-02-11T08:16:33.024Z,33.90
2023-02-11T08:19:04.633Z,31.20
2023-02-11T08:21:32.061Z,27.35
2023-02-11T08:23:59.364Z,22.90
2023-02-11T08:26:29.923Z,21.83
2023-02-11T08:28:58.988Z,22.08
2023-02-11T08:31:34.921Z,35.85
2023-02-11T08:34:02.647Z,26.63
2023-02-11T08:36:34.410Z,23.00
2023-02-11T08:39:18.161Z,22.40
2023-02-11T08:41:49.172Z,25.92
2023-02-11T08:44:18.687Z,22.25
2023-02-11T08:46:46.406Z,27.20
2023-02-11T08:49:14.302Z,26.98
2023-02-11T08:51:41.648Z,25.65
2023-02-11T08:54:10.134Z,25.90
2023-02-11T08:56:38.810Z,24.40
2023-02-11T08:59:07.147Z,21.13
2023-02-11T09:01:35.621Z,22.83
2023-02-11T09:04:03.054Z,21.55
2023-02-11T09:06:30.630Z,20.65
2023-02-11T09:08:58.533Z,22.55
2023-02-11T09:11:34.541Z,20.80
2023-02-11T09:14:04.001Z,19.25
2023-02-11T09:16:36.387Z,23.95
2023-02-11T09:19:06.111Z,26.58
2023-02-11T09:21:33.506Z,34.10
2023-02-11T09:24:00.986Z,25.58
2023-02-11T09:26:31.548Z,27.75
2023-02-11T09:29:00.453Z,29.15
2023-02-11T09:31:31.521Z,26.75
2023-02-11T09:34:02.920Z,25.58
2023-02-11T09:36:35.304Z,24.30
2023-02-11T09:39:04.985Z,26.08
2023-02-11T09:41:59.313Z,24.00
2023-02-11T09:44:32.458Z,23.17
2023-02-11T09:47:16.212Z,22.75
2023-02-11T09:49:50.185Z,24.15
2023-02-11T09:52:36.502Z,24.42
2023-02-11T09:55:21.150Z,26.08
2023-02-11T09:57:48.815Z,21.67
2023-02-11T10:01:12.311Z,25.30
2023-02-11T10:03:46.288Z,25.70
2023-02-11T10:06:41.059Z,26.55
2023-02-11T10:09:55.629Z,22.52
2023-02-11T10:12:44.381Z,24.30
2023-02-11T10:15:31.090Z,24.25
2023-02-11T10:18:33.928Z,26.90
2023-02-11T10:21:32.933Z,25.50
2023-02-11T10:24:10.042Z,27.67
2023-02-11T10:26:39.897Z,27.05
2023-02-11T10:29:31.035Z,27.27
2023-02-11T10:32:01.003Z,24.70
2023-02-11T10:34:28.230Z,21.08
2023-02-11T10:36:55.437Z,26.88
2023-02-11T10:39:27.082Z,29.00
2023-02-11T10:42:06.847Z,26.92
2023-02-11T10:44:41.875Z,26.75
2023-02-11T10:47:22.226Z,27.42
2023-02-11T10:49:50.076Z,29.52
2023-02-11T10:52:30.679Z,25.25
2023-02-11T10:55:21.916Z,30.30
2023-02-11T10:58:03.021Z,27.88
2023-02-11T11:00:43.803Z,37.28
2023-02-11T11:05:57.386Z,26.42
2023-02-11T11:08:47.598Z,28.27
2023-02-11T11:11:23.847Z,31.45
2023-02-11T11:13:58.176Z,30.65
2023-02-11T11:16:35.988Z,31.55
2023-02-11T11:19:09.337Z,30.27
2023-02-11T11:21:55.156Z,28.77
2023-02-11T11:24:45.335Z,28.38
2023-02-11T11:27:33.137Z,31.23
2023-02-11T11:30:02.347Z,33.20
2023-02-11T11:32:33.511Z,23.95
2023-02-11T11:35:10.219Z,25.73
2023-02-11T11:37:38.942Z,31.60
2023-02-11T11:40:13.848Z,23.55
2023-02-11T11:42:41.733Z,25.63
2023-02-11T11:45:21.006Z,28.35
2023-02-11T11:48:12.785Z,22.80
2023-02-11T11:50:58.141Z,27.25
2023-02-11T11:53:46.303Z,28.55
2023-02-11T11:56:27.007Z,23.98
2023-02-11T11:58:54.709Z,23.20
2023-02-11T12:02:18.123Z,20.77
2023-02-11T12:05:14.824Z,24.42
2023-02-11T12:08:17.327Z,29.95
2023-02-11T12:11:34.756Z,26.08
2023-02-11T12:14:35.297Z,23.65
2023-02-11T12:17:38.355Z,23.73
2023-02-11T12:20:43.680Z,22.73
2023-02-11T12:23:32.381Z,28.63
2023-02-11T12:26:23.916Z,25.90
2023-02-11T12:29:10.195Z,27.77
2023-02-11T12:32:08.456Z,26.20
2023-02-11T12:35:18.013Z,24.15
2023-02-11T12:37:59.946Z,24.67
2023-02-11T12:40:39.575Z,24.90
2023-02-11T12:43:21.423Z,29.95
2023-02-11T12:46:22.664Z,23.60
2023-02-11T12:49:05.100Z,24.83
2023-02-11T12:52:10.509Z,22.35
2023-02-11T12:54:52.201Z,24.75
2023-02-11T12:57:28.305Z,20.02
2023-02-11T13:00:04.943Z,23.27
2023-02-11T13:03:03.812Z,21.90
2023-02-11T13:06:14.041Z,23.65
2023-02-11T13:08:48.591Z,25.33
2023-02-11T13:11:39.868Z,26.60
2023-02-11T13:14:32.915Z,24.70
2023-02-11T13:17:00.380Z,22.98
2023-02-11T13:19:48.635Z,27.67
2023-02-11T13:22:44.771Z,24.13
2023-02-11T13:26:06.855Z,27.10
2023-02-11T13:28:53.795Z,28.20
2023-02-11T13:31:21.266Z,25.90
2023-02-11T13:33:49.997Z,26.52
2023-02-11T13:36:38.632Z,29.20
2023-02-11T13:39:07.973Z,25.65
2023-02-11T13:41:41.443Z,25.17
2023-02-11T13:44:11.682Z,30.75
2023-02-11T13:46:57.303Z,33.35
2023-02-11T13:49:32.295Z,36.25
2023-02-11T13:52:01.963Z,61.83
2023-02-11T13:54:35.452Z,32.25
2023-02-11T13:57:37.366Z,35.95
2023-02-11T14:00:33.814Z,41.60
2023-02-11T14:03:32.349Z,41.03
2023-02-11T14:06:56.390Z,34.35
2023-02-11T14:09:23.517Z,34.33
2023-02-11T14:12:14.528Z,29.60
2023-02-11T14:15:04.804Z,31.27
2023-02-11T14:17:35.301Z,31.02
2023-02-11T14:20:24.829Z,37.38
2023-02-11T14:22:54.325Z,35.97
2023-02-11T14:25:26.331Z,33.28
2023-02-11T14:28:26.121Z,31.88
2023-02-11T14:31:24.350Z,30.23
2023-02-11T14:34:27.243Z,44.10
2023-02-11T14:37:50.977Z,44.33
2023-02-11T14:40:31.908Z,58.63
2023-02-11T14:45:37.062Z,33.80
2023-02-11T14:48:14.915Z,24.92
2023-02-11T14:50:47.317Z,29.55
2023-02-11T14:53:19.696Z,34.17
2023-02-11T14:55:52.518Z,33.17
2023-02-11T14:58:29.604Z,30.38
2023-02-11T15:01:30.212Z,29.80
2023-02-11T15:03:59.526Z,27.92
2023-02-11T15:06:39.388Z,33.30
2023-02-11T15:09:19.315Z,28.50
2023-02-11T15:11:49.424Z,32.27
2023-02-11T15:14:25.874Z,29.40
2023-02-11T15:17:01.292Z,32.70
2023-02-11T15:19:41.367Z,29.33
2023-02-11T15:22:25.677Z,30.88
2023-02-11T15:25:11.048Z,33.95
2023-02-11T15:27:50.272Z,29.52
2023-02-11T15:30:25.112Z,38.22
2023-02-11T15:33:06.930Z,35.33
2023-02-11T15:35:39.921Z,31.52
2023-02-11T15:41:38.596Z,28.27
2023-02-11T15:44:06.157Z,33.33
2023-02-11T15:46:39.592Z,30.30
2023-02-11T15:49:08.672Z,29.60
2023-02-11T15:51:38.706Z,32.35
2023-02-11T15:54:16.323Z,32.03
2023-02-11T15:56:49.552Z,30.55
2023-02-11T16:02:46.661Z,32.85
2023-02-11T16:05:36.846Z,30.08
2023-02-11T16:08:34.701Z,34.28
2023-02-11T16:11:09.196Z,32.97
2023-02-11T16:13:47.546Z,36.22
2023-02-11T16:16:34.949Z,37.13
2023-02-11T16:19:06.186Z,39.72
2023-02-11T16:21:42.484Z,35.90
2023-02-11T16:24:28.123Z,35.78
2023-02-11T16:27:02.219Z,38.65
2023-02-11T16:29:32.652Z,37.97
2023-02-11T16:32:28.327Z,39.60
2023-02-11T16:35:00.788Z,37.88
2023-02-11T16:37:28.430Z,40.88
2023-02-11T16:39:58.183Z,41.85
2023-02-11T16:42:25.686Z,42.53
2023-02-11T16:44:52.996Z,40.78
2023-02-11T16:47:26.602Z,44.60
2023-02-11T16:49:55.604Z,33.28
2023-02-11T16:52:23.528Z,47.90
2023-02-11T16:54:51.498Z,42.67
2023-02-11T16:57:23.044Z,49.42
2023-02-11T16:59:50.944Z,46.25
2023-02-11T17:02:24.435Z,50.35
2023-02-11T17:04:54.163Z,54.20
2023-02-11T17:07:21.605Z,42.47
2023-02-11T17:09:48.919Z,49.95
2023-02-11T17:12:16.134Z,49.22
2023-02-11T17:14:43.598Z,49.33
2023-02-11T17:17:11.624Z,51.10
2023-02-11T17:19:40.217Z,51.13
2023-02-11T17:22:07.717Z,57.28
2023-02-11T17:24:35.082Z,45.10
2023-02-11T17:27:02.375Z,51.75
2023-02-11T17:29:29.689Z,49.70
2023-02-11T17:31:57.262Z,50.58
2023-02-11T17:34:24.917Z,51.13
2023-02-11T17:36:52.170Z,49.55
2023-02-11T17:39:21.246Z,57.50
2023-02-11T17:41:48.646Z,50.72
2023-02-11T17:44:16.728Z,51.85
2023-02-11T17:46:44.412Z,57.25
2023-02-11T17:49:12.772Z,52.58
2023-02-11T17:51:41.226Z,52.13
2023-02-11T17:54:15.977Z,55.15
2023-02-11T17:56:43.584Z,55.15
2023-02-11T17:59:13.205Z,57.00
2023-02-11T18:01:42.345Z,62.72
2023-02-11T18:04:15.853Z,56.40
2023-02-11T18:06:44.129Z,53.65
2023-02-11T18:09:12.605Z,57.20
2023-02-11T18:11:40.872Z,53.78
2023-02-11T18:14:10.275Z,47.53
2023-02-11T18:16:39.867Z,52.53
2023-02-11T18:19:07.969Z,51.95
2023-02-11T18:21:35.828Z,54.17
2023-02-11T18:24:06.837Z,53.17
2023-02-11T18:26:35.113Z,46.58
2023-02-11T18:29:03.900Z,52.60
2023-02-11T18:31:31.515Z,47.20
2023-02-11T18:33:58.846Z,51.00
2023-02-11T18:36:26.122Z,46.72
2023-02-11T18:38:54.373Z,49.65
2023-02-11T18:41:21.848Z,52.28
2023-02-11T18:43:49.272Z,46.15
2023-02-11T18:46:17.263Z,57.97
2023-02-11T18:48:45.450Z,52.58
2023-02-11T18:51:18.416Z,42.88
2023-02-11T18:53:46.315Z,49.55
2023-02-11T18:56:21.200Z,49.78
2023-02-11T18:58:49.233Z,53.15
2023-02-11T19:01:24.393Z,48.95
2023-02-11T19:03:52.005Z,48.05
2023-02-11T19:06:28.576Z,39.22
2023-02-11T19:09:00.101Z,45.60
2023-02-11T19:11:49.088Z,44.38
2023-02-11T19:14:29.335Z,68.50
2023-02-11T19:16:59.513Z,85.82
2023-02-11T19:19:30.331Z,53.95
2023-02-11T19:21:59.977Z,47.72
2023-02-11T19:24:29.239Z,48.53
2023-02-11T19:27:00.378Z,53.58
2023-02-11T19:29:29.830Z,45.72
2023-02-11T19:31:57.220Z,54.13
2023-02-11T19:34:24.840Z,45.65
2023-02-11T19:36:53.430Z,55.88
2023-02-11T19:39:21.472Z,49.97
2023-02-11T19:41:48.791Z,44.88
2023-02-11T19:44:16.698Z,55.88
2023-02-11T19:46:44.614Z,46.35
2023-02-11T19:49:16.946Z,50.03
2023-02-11T19:51:44.382Z,52.88
2023-02-11T19:54:11.766Z,50.58
2023-02-11T19:56:39.062Z,43.95
2023-02-11T19:59:09.003Z,46.75
2023-02-11T20:01:37.152Z,53.83
2023-02-11T20:04:04.858Z,50.15
2023-02-11T20:06:34.501Z,50.97
2023-02-11T20:09:06.927Z,50.05
2023-02-11T20:11:35.206Z,53.97
2023-02-11T20:14:03.703Z,46.85
2023-02-11T20:16:47.046Z,51.38
2023-02-11T20:19:21.815Z,45.45
2023-02-11T20:21:52.652Z,51.90
2023-02-11T20:26:48.692Z,44.63
2023-02-11T20:29:17.945Z,48.45
2023-02-11T20:31:45.660Z,45.67
2023-02-11T20:34:13.084Z,50.63
2023-02-11T20:36:41.038Z,44.40
2023-02-11T20:39:10.595Z,46.30
2023-02-11T20:41:41.498Z,48.00
2023-02-11T20:44:10.984Z,48.80
2023-02-11T20:46:46.031Z,47.42
2023-02-11T20:49:19.433Z,41.30
2023-02-11T20:51:47.774Z,41.85
2023-02-11T20:54:18.564Z,42.72
2023-02-11T20:59:16.982Z,44.45
2023-02-11T21:01:53.494Z,42.33
2023-02-11T21:04:25.635Z,45.33
2023-02-11T21:06:56.880Z,37.55
2023-02-11T21:09:28.118Z,45.67
2023-02-11T21:11:55.568Z,43.67
2023-02-11T21:14:24.834Z,36.03
2023-02-11T21:16:53.346Z,36.72
2023-02-11T21:19:21.427Z,42.80
2023-02-11T21:21:49.273Z,47.25
2023-02-11T21:24:16.605Z,43.40
2023-02-11T21:26:44.013Z,43.97
2023-02-11T21:29:11.963Z,43.70
2023-02-11T21:31:40.123Z,39.60
2023-02-11T21:34:08.043Z,41.78
2023-02-11T21:36:35.441Z,45.00
2023-02-11T21:39:04.065Z,39.60
2023-02-11T21:41:31.669Z,38.50
2023-02-11T21:43:58.989Z,40.55
2023-02-11T21:46:27.403Z,44.83
2023-02-11T21:48:54.665Z,41.25
2023-02-11T21:51:26.498Z,40.78
2023-02-11T21:53:59.143Z,45.55
2023-02-11T21:56:28.347Z,41.72
2023-02-11T21:58:58.193Z,41.28
2023-02-11T22:01:30.280Z,44.92
2023-02-11T22:03:58.158Z,42.03
2023-02-11T22:06:31.124Z,41.30
2023-02-11T22:09:01.778Z,39.70
2023-02-11T22:11:29.167Z,42.58
2023-02-11T22:13:57.858Z,38.47
2023-02-11T22:16:27.016Z,36.72
2023-02-11T22:18:56.128Z,46.03
2023-02-11T22:21:23.591Z,39.13
2023-02-11T22:23:52.020Z,43.80
2023-02-11T22:26:22.713Z,44.35
2023-02-11T22:31:27.181Z,45.10
2023-02-11T22:33:55.398Z,42.70
2023-02-11T22:36:27.071Z,46.45
2023-02-11T22:38:55.606Z,48.70
2023-02-11T22:41:24.585Z,40.35
2023-02-11T22:43:51.922Z,50.35
2023-02-11T22:46:20.166Z,46.97
2023-02-11T22:48:48.476Z,44.67
2023-02-11T22:51:23.064Z,45.17
2023-02-11T22:54:02.291Z,48.88
2023-02-11T22:56:31.531Z,41.78
2023-02-11T22:59:01.534Z,46.83
2023-02-11T23:01:30.048Z,41.25
2023-02-11T23:03:58.692Z,39.42
2023-02-11T23:06:25.940Z,45.63
2023-02-11T23:08:53.515Z,41.83
2023-02-11T23:11:24.879Z,42.40
2023-02-11T23:13:53.520Z,47.97
2023-02-11T23:16:39.980Z,42.10
2023-02-11T23:19:09.078Z,44.47
2023-02-11T23:21:38.955Z,45.35
2023-02-11T23:24:12.101Z,43.10
2023-02-11T23:26:41.297Z,42.88
2023-02-11T23:29:17.278Z,40.78
2023-02-11T23:31:46.530Z,39.95
2023-02-11T23:34:23.898Z,46.75
2023-02-11T23:36:52.783Z,49.55
2023-02-11T23:39:20.577Z,43.35
2023-02-11T23:41:47.888Z,37.88
2023-02-11T23:44:15.128Z,43.22
2023-02-11T23:46:42.424Z,42.60
2023-02-11T23:49:09.961Z,46.35
2023-02-11T23:51:37.160Z,42.72
2023-02-11T23:54:04.421Z,45.03
2023-02-11T23:56:31.788Z,42.15
2023-02-11T23:58:59.485Z,46.58
